sensor_id;sensor_type;location;lat;lon;timestamp;temperature;humidity
18456;DHT22;9357;49.900;8.208;2022-07-24T00:00:12;22.70;99.90
18456;DHT22;9357;49.900;8.208;2022-07-24T00:01:45;22.70;99.90
18456;DHT22;9357;49.900;8.208;2022-07-24T00:03:18;22.70;99.90
18456;DHT22;9357;49.900;8.208;2022-07-24T00:04:52;22.70;99.90
18456;DHT22;9357;49.900;8.208;2022-07-24T00:06:29;22.60;99.90
18456;DHT22;9357;49.900;8.208;2022-07-24T00:08:02;22.60;99.90
18456;DHT22;9357;49.900;8.208;2022-07-24T00:09:35;22.60;99.90
18456;DHT22;9357;49.900;8.208;2022-07-24T00:11:08;22.60;99.90
18456;DHT22;9357;49.900;8.208;2022-07-24T00:12:41;22.70;99.90
18456;DHT22;9357;49.900;8.208;2022-07-24T00:14:14;22.60;99.90
18456;DHT22;9357;49.900;8.208;2022-07-24T00:15:47;22.60;99.90
18456;DHT22;9357;49.900;8.208;2022-07-24T00:17:19;22.60;99.90
18456;DHT22;9357;49.900;8.208;2022-07-24T00:18:52;22.60;99.90
18456;DHT22;9357;49.900;8.208;2022-07-24T00:20:25;22.60;99.90
18456;DHT22;9357;49.900;8.208;2022-07-24T00:21:59;22.60;99.90
18456;DHT22;9357;49.900;8.208;2022-07-24T00:23:34;22.60;99.90
18456;DHT22;9357;49.900;8.208;2022-07-24T00:25:07;22.60;99.90
18456;DHT22;9357;49.900;8.208;2022-07-24T00:26:40;22.50;99.90
18456;DHT22;9357;49.900;8.208;2022-07-24T00:28:13;22.50;99.90
18456;DHT22;9357;49.900;8.208;2022-07-24T00:29:45;22.50;99.90
18456;DHT22;9357;49.900;8.208;2022-07-24T00:31:18;22.40;99.90
18456;DHT22;9357;49.900;8.208;2022-07-24T00:32:51;22.40;99.90
18456;DHT22;9357;49.900;8.208;2022-07-24T00:34:23;22.40;99.90
18456;DHT22;9357;49.900;8.208;2022-07-24T00:35:56;22.40;99.90
18456;DHT22;9357;49.900;8.208;2022-07-24T00:37:30;22.40;99.90
18456;DHT22;9357;49.900;8.208;2022-07-24T00:39:03;22.40;99.90
18456;DHT22;9357;49.900;8.208;2022-07-24T00:40:37;22.40;99.90
18456;DHT22;9357;49.900;8.208;2022-07-24T00:42:10;22.40;99.90
18456;DHT22;9357;49.900;8.208;2022-07-24T00:44:01;22.40;99.90
18456;DHT22;9357;49.900;8.208;2022-07-24T00:45:35;22.40;99.90
18456;DHT22;9357;49.900;8.208;2022-07-24T00:47:08;22.30;99.90
18456;DHT22;9357;49.900;8.208;2022-07-24T00:48:40;22.30;99.90
18456;DHT22;9357;49.900;8.208;2022-07-24T00:50:14;22.30;99.90
18456;DHT22;9357;49.900;8.208;2022-07-24T00:51:48;22.30;99.90
18456;DHT22;9357;49.900;8.208;2022-07-24T00:53:23;22.20;99.90
18456;DHT22;9357;49.900;8.208;2022-07-24T00:54:55;22.20;99.90
18456;DHT22;9357;49.900;8.208;2022-07-24T00:56:27;22.20;99.90
18456;DHT22;9357;49.900;8.208;2022-07-24T00:58:00;22.20;99.90
18456;DHT22;9357;49.900;8.208;2022-07-24T00:59:33;22.20;99.90
18456;DHT22;9357;49.900;8.208;2022-07-24T01:01:06;22.20;99.90
18456;DHT22;9357;49.900;8.208;2022-07-24T01:02:40;22.10;99.90
18456;DHT22;9357;49.900;8.208;2022-07-24T01:04:13;22.10;99.90
18456;DHT22;9357;49.900;8.208;2022-07-24T01:05:46;22.00;99.90
18456;DHT22;9357;49.900;8.208;2022-07-24T01:07:19;22.00;99.90
18456;DHT22;9357;49.900;8.208;2022-07-24T01:08:53;22.00;99.90
18456;DHT22;9357;49.900;8.208;2022-07-24T01:10:26;22.00;99.90
18456;DHT22;9357;49.900;8.208;2022-07-24T01:11:59;22.00;99.90
18456;DHT22;9357;49.900;8.208;2022-07-24T01:13:32;22.00;99.90
18456;DHT22;9357;49.900;8.208;2022-07-24T01:15:07;22.00;99.90
18456;DHT22;9357;49.900;8.208;2022-07-24T01:16:41;22.00;99.90
18456;DHT22;9357;49.900;8.208;2022-07-24T01:18:14;21.90;99.90
18456;DHT22;9357;49.900;8.208;2022-07-24T01:19:47;21.90;99.90
18456;DHT22;9357;49.900;8.208;2022-07-24T01:21:21;21.90;99.90
18456;DHT22;9357;49.900;8.208;2022-07-24T01:22:54;21.90;99.90
18456;DHT22;9357;49.900;8.208;2022-07-24T01:24:27;21.90;99.90
18456;DHT22;9357;49.900;8.208;2022-07-24T01:26:00;21.90;99.90
18456;DHT22;9357;49.900;8.208;2022-07-24T01:27:34;21.90;99.90
18456;DHT22;9357;49.900;8.208;2022-07-24T01:29:06;21.80;99.90
18456;DHT22;9357;49.900;8.208;2022-07-24T01:30:39;21.90;99.90
18456;DHT22;9357;49.900;8.208;2022-07-24T01:32:12;21.80;99.90
18456;DHT22;9357;49.900;8.208;2022-07-24T01:33:44;21.80;99.90
18456;DHT22;9357;49.900;8.208;2022-07-24T01:35:17;21.80;99.90
18456;DHT22;9357;49.900;8.208;2022-07-24T01:36:55;21.80;99.90
18456;DHT22;9357;49.900;8.208;2022-07-24T01:38:28;21.80;99.90
18456;DHT22;9357;49.900;8.208;2022-07-24T01:40:01;21.80;99.90
18456;DHT22;9357;49.900;8.208;2022-07-24T01:41:34;21.80;99.90
18456;DHT22;9357;49.900;8.208;2022-07-24T01:43:07;21.70;99.90
18456;DHT22;9357;49.900;8.208;2022-07-24T01:44:40;21.70;99.90
18456;DHT22;9357;49.900;8.208;2022-07-24T01:46:12;21.70;99.90
18456;DHT22;9357;49.900;8.208;2022-07-24T01:47:45;21.60;99.90
18456;DHT22;9357;49.900;8.208;2022-07-24T01:49:19;21.60;99.90
18456;DHT22;9357;49.900;8.208;2022-07-24T01:50:52;21.60;99.90
18456;DHT22;9357;49.900;8.208;2022-07-24T01:52:26;21.60;99.90
18456;DHT22;9357;49.900;8.208;2022-07-24T01:53:59;21.60;99.90
18456;DHT22;9357;49.900;8.208;2022-07-24T01:55:34;21.50;99.90
18456;DHT22;9357;49.900;8.208;2022-07-24T01:57:06;21.50;99.90
18456;DHT22;9357;49.900;8.208;2022-07-24T01:58:40;21.60;99.90
18456;DHT22;9357;49.900;8.208;2022-07-24T02:00:15;21.60;99.90
18456;DHT22;9357;49.900;8.208;2022-07-24T02:01:50;21.50;99.90
18456;DHT22;9357;49.900;8.208;2022-07-24T02:03:23;21.50;99.90
18456;DHT22;9357;49.900;8.208;2022-07-24T02:04:56;21.50;99.90
18456;DHT22;9357;49.900;8.208;2022-07-24T02:06:28;21.50;99.90
18456;DHT22;9357;49.900;8.208;2022-07-24T02:08:02;21.50;99.90
18456;DHT22;9357;49.900;8.208;2022-07-24T02:09:35;21.50;99.90
18456;DHT22;9357;49.900;8.208;2022-07-24T02:11:08;21.50;99.90
18456;DHT22;9357;49.900;8.208;2022-07-24T02:12:40;21.50;99.90
18456;DHT22;9357;49.900;8.208;2022-07-24T02:14:13;21.40;99.90
18456;DHT22;9357;49.900;8.208;2022-07-24T02:15:46;21.50;99.90
18456;DHT22;9357;49.900;8.208;2022-07-24T02:17:18;21.50;99.90
18456;DHT22;9357;49.900;8.208;2022-07-24T02:18:51;21.50;99.90
18456;DHT22;9357;49.900;8.208;2022-07-24T02:20:24;21.50;99.90
18456;DHT22;9357;49.900;8.208;2022-07-24T02:21:57;21.60;99.90
18456;DHT22;9357;49.900;8.208;2022-07-24T02:23:31;21.60;99.90
18456;DHT22;9357;49.900;8.208;2022-07-24T02:25:05;21.60;99.90
18456;DHT22;9357;49.900;8.208;2022-07-24T02:26:38;21.70;99.90
18456;DHT22;9357;49.900;8.208;2022-07-24T02:28:11;21.70;99.90
18456;DHT22;9357;49.900;8.208;2022-07-24T02:29:46;21.70;99.90
18456;DHT22;9357;49.900;8.208;2022-07-24T02:31:19;21.70;99.90
18456;DHT22;9357;49.900;8.208;2022-07-24T02:32:52;21.70;99.90
18456;DHT22;9357;49.900;8.208;2022-07-24T02:34:24;21.70;99.90
18456;DHT22;9357;49.900;8.208;2022-07-24T02:35:58;21.70;99.90
18456;DHT22;9357;49.900;8.208;2022-07-24T02:37:31;21.80;99.90
18456;DHT22;9357;49.900;8.208;2022-07-24T02:39:05;21.80;99.90
18456;DHT22;9357;49.900;8.208;2022-07-24T02:40:38;21.80;99.90
18456;DHT22;9357;49.900;8.208;2022-07-24T02:42:11;21.80;99.90
18456;DHT22;9357;49.900;8.208;2022-07-24T02:43:43;21.80;99.90
18456;DHT22;9357;49.900;8.208;2022-07-24T02:45:16;21.80;99.90
18456;DHT22;9357;49.900;8.208;2022-07-24T02:46:50;21.80;99.90
18456;DHT22;9357;49.900;8.208;2022-07-24T02:48:23;21.80;99.90
18456;DHT22;9357;49.900;8.208;2022-07-24T02:49:56;21.80;99.90
18456;DHT22;9357;49.900;8.208;2022-07-24T02:51:28;21.80;99.90
18456;DHT22;9357;49.900;8.208;2022-07-24T02:53:01;21.80;99.90
18456;DHT22;9357;49.900;8.208;2022-07-24T02:54:35;21.70;99.90
18456;DHT22;9357;49.900;8.208;2022-07-24T02:56:08;21.70;99.90
18456;DHT22;9357;49.900;8.208;2022-07-24T02:57:40;21.70;99.90
18456;DHT22;9357;49.900;8.208;2022-07-24T02:59:13;21.70;99.90
18456;DHT22;9357;49.900;8.208;2022-07-24T03:00:46;21.70;99.90
18456;DHT22;9357;49.900;8.208;2022-07-24T03:02:19;21.70;99.90
18456;DHT22;9357;49.900;8.208;2022-07-24T03:03:52;21.70;99.90
18456;DHT22;9357;49.900;8.208;2022-07-24T03:05:25;21.60;99.90
18456;DHT22;9357;49.900;8.208;2022-07-24T03:06:57;21.60;99.90
18456;DHT22;9357;49.900;8.208;2022-07-24T03:08:30;21.60;99.90
18456;DHT22;9357;49.900;8.208;2022-07-24T03:10:06;21.60;99.90
18456;DHT22;9357;49.900;8.208;2022-07-24T03:11:39;21.60;99.90
18456;DHT22;9357;49.900;8.208;2022-07-24T03:13:12;21.50;99.90
18456;DHT22;9357;49.900;8.208;2022-07-24T03:14:45;21.50;99.90
18456;DHT22;9357;49.900;8.208;2022-07-24T03:16:16;21.50;99.90
18456;DHT22;9357;49.900;8.208;2022-07-24T03:17:50;21.50;99.90
18456;DHT22;9357;49.900;8.208;2022-07-24T03:19:25;21.50;99.90
18456;DHT22;9357;49.900;8.208;2022-07-24T03:20:58;21.40;99.90
18456;DHT22;9357;49.900;8.208;2022-07-24T03:22:31;21.40;99.90
18456;DHT22;9357;49.900;8.208;2022-07-24T03:24:04;21.50;99.90
18456;DHT22;9357;49.900;8.208;2022-07-24T03:25:38;21.50;99.90
18456;DHT22;9357;49.900;8.208;2022-07-24T03:27:11;21.50;99.90
18456;DHT22;9357;49.900;8.208;2022-07-24T03:28:43;21.50;99.90
18456;DHT22;9357;49.900;8.208;2022-07-24T03:30:17;21.50;99.90
18456;DHT22;9357;49.900;8.208;2022-07-24T03:31:50;21.50;99.90
18456;DHT22;9357;49.900;8.208;2022-07-24T03:33:23;21.50;99.90
18456;DHT22;9357;49.900;8.208;2022-07-24T03:34:56;21.50;99.90
18456;DHT22;9357;49.900;8.208;2022-07-24T03:36:29;21.50;99.90
18456;DHT22;9357;49.900;8.208;2022-07-24T03:38:01;21.60;99.90
18456;DHT22;9357;49.900;8.208;2022-07-24T03:39:34;21.50;99.90
18456;DHT22;9357;49.900;8.208;2022-07-24T03:41:09;21.50;99.90
18456;DHT22;9357;49.900;8.208;2022-07-24T03:42:41;21.60;99.90
18456;DHT22;9357;49.900;8.208;2022-07-24T03:44:14;21.60;99.90
18456;DHT22;9357;49.900;8.208;2022-07-24T03:45:47;21.50;99.90
18456;DHT22;9357;49.900;8.208;2022-07-24T03:47:20;21.50;99.90
18456;DHT22;9357;49.900;8.208;2022-07-24T03:48:53;21.50;99.90
18456;DHT22;9357;49.900;8.208;2022-07-24T03:50:26;21.50;99.90
18456;DHT22;9357;49.900;8.208;2022-07-24T03:51:59;21.50;99.90
18456;DHT22;9357;49.900;8.208;2022-07-24T03:53:31;21.50;99.90
18456;DHT22;9357;49.900;8.208;2022-07-24T03:55:05;21.50;99.90
18456;DHT22;9357;49.900;8.208;2022-07-24T03:56:40;21.50;99.90
18456;DHT22;9357;49.900;8.208;2022-07-24T03:58:13;21.50;99.90
18456;DHT22;9357;49.900;8.208;2022-07-24T03:59:46;21.50;99.90
18456;DHT22;9357;49.900;8.208;2022-07-24T04:01:19;21.50;99.90
18456;DHT22;9357;49.900;8.208;2022-07-24T04:02:52;21.50;99.90
18456;DHT22;9357;49.900;8.208;2022-07-24T04:04:26;21.50;99.90
18456;DHT22;9357;49.900;8.208;2022-07-24T04:06:00;21.50;99.90
18456;DHT22;9357;49.900;8.208;2022-07-24T04:07:32;21.50;99.90
18456;DHT22;9357;49.900;8.208;2022-07-24T04:09:05;21.50;99.90
18456;DHT22;9357;49.900;8.208;2022-07-24T04:10:39;21.50;99.90
18456;DHT22;9357;49.900;8.208;2022-07-24T04:12:13;21.50;99.90
18456;DHT22;9357;49.900;8.208;2022-07-24T04:13:46;21.50;99.90
18456;DHT22;9357;49.900;8.208;2022-07-24T04:15:18;21.50;99.90
18456;DHT22;9357;49.900;8.208;2022-07-24T04:16:51;21.50;99.90
18456;DHT22;9357;49.900;8.208;2022-07-24T04:18:24;21.50;99.90
18456;DHT22;9357;49.900;8.208;2022-07-24T04:19:58;21.50;99.90
18456;DHT22;9357;49.900;8.208;2022-07-24T04:21:30;21.50;99.90
18456;DHT22;9357;49.900;8.208;2022-07-24T04:23:03;21.50;99.90
18456;DHT22;9357;49.900;8.208;2022-07-24T04:24:36;21.50;99.90
18456;DHT22;9357;49.900;8.208;2022-07-24T04:26:09;21.50;99.90
18456;DHT22;9357;49.900;8.208;2022-07-24T04:27:43;21.40;99.90
18456;DHT22;9357;49.900;8.208;2022-07-24T04:29:16;21.50;99.90
18456;DHT22;9357;49.900;8.208;2022-07-24T04:30:53;21.50;99.90
18456;DHT22;9357;49.900;8.208;2022-07-24T04:32:26;21.50;99.90
18456;DHT22;9357;49.900;8.208;2022-07-24T04:33:59;21.50;99.90
18456;DHT22;9357;49.900;8.208;2022-07-24T04:35:31;21.50;99.90
18456;DHT22;9357;49.900;8.208;2022-07-24T04:37:04;21.50;99.90
18456;DHT22;9357;49.900;8.208;2022-07-24T04:38:37;21.50;99.90
18456;DHT22;9357;49.900;8.208;2022-07-24T04:40:11;21.50;99.90
18456;DHT22;9357;49.900;8.208;2022-07-24T04:41:44;21.50;99.90
18456;DHT22;9357;49.900;8.208;2022-07-24T04:43:18;21.50;99.90
18456;DHT22;9357;49.900;8.208;2022-07-24T04:44:51;21.50;99.90
18456;DHT22;9357;49.900;8.208;2022-07-24T04:46:24;21.50;99.90
18456;DHT22;9357;49.900;8.208;2022-07-24T04:47:56;21.50;99.90
18456;DHT22;9357;49.900;8.208;2022-07-24T04:49:29;21.50;99.90
18456;DHT22;9357;49.900;8.208;2022-07-24T04:51:02;21.50;99.90
18456;DHT22;9357;49.900;8.208;2022-07-24T04:52:35;21.50;99.90
18456;DHT22;9357;49.900;8.208;2022-07-24T04:54:08;21.50;99.90
18456;DHT22;9357;49.900;8.208;2022-07-24T04:55:40;21.50;99.90
18456;DHT22;9357;49.900;8.208;2022-07-24T04:57:13;21.50;99.90
18456;DHT22;9357;49.900;8.208;2022-07-24T04:58:48;21.50;99.90
18456;DHT22;9357;49.900;8.208;2022-07-24T05:00:21;21.50;99.90
18456;DHT22;9357;49.900;8.208;2022-07-24T05:01:53;21.60;99.90
18456;DHT22;9357;49.900;8.208;2022-07-24T05:03:32;21.60;99.90
18456;DHT22;9357;49.900;8.208;2022-07-24T05:05:05;21.60;99.90
18456;DHT22;9357;49.900;8.208;2022-07-24T05:06:38;21.60;99.90
18456;DHT22;9357;49.900;8.208;2022-07-24T05:08:11;21.60;99.90
18456;DHT22;9357;49.900;8.208;2022-07-24T05:09:43;21.70;99.90
18456;DHT22;9357;49.900;8.208;2022-07-24T05:11:16;21.70;99.90
18456;DHT22;9357;49.900;8.208;2022-07-24T05:12:49;21.70;99.90
18456;DHT22;9357;49.900;8.208;2022-07-24T05:14:23;21.70;99.90
18456;DHT22;9357;49.900;8.208;2022-07-24T05:15:56;21.70;99.90
18456;DHT22;9357;49.900;8.208;2022-07-24T05:17:29;21.70;99.90
18456;DHT22;9357;49.900;8.208;2022-07-24T05:19:02;21.70;99.90
18456;DHT22;9357;49.900;8.208;2022-07-24T05:20:36;21.80;99.90
18456;DHT22;9357;49.900;8.208;2022-07-24T05:22:08;21.80;99.90
18456;DHT22;9357;49.900;8.208;2022-07-24T05:23:41;21.80;99.90
18456;DHT22;9357;49.900;8.208;2022-07-24T05:25:16;21.80;99.90
18456;DHT22;9357;49.900;8.208;2022-07-24T05:26:48;21.80;99.90
18456;DHT22;9357;49.900;8.208;2022-07-24T05:28:21;21.90;99.90
18456;DHT22;9357;49.900;8.208;2022-07-24T05:29:56;21.90;99.90
18456;DHT22;9357;49.900;8.208;2022-07-24T05:31:29;21.90;99.90
18456;DHT22;9357;49.900;8.208;2022-07-24T05:33:02;21.90;99.90
18456;DHT22;9357;49.900;8.208;2022-07-24T05:34:34;21.90;99.90
18456;DHT22;9357;49.900;8.208;2022-07-24T05:36:11;21.90;99.90
18456;DHT22;9357;49.900;8.208;2022-07-24T05:37:44;21.90;99.90
18456;DHT22;9357;49.900;8.208;2022-07-24T05:39:17;21.90;99.90
18456;DHT22;9357;49.900;8.208;2022-07-24T05:40:50;21.90;99.90
18456;DHT22;9357;49.900;8.208;2022-07-24T05:42:23;22.00;99.90
18456;DHT22;9357;49.900;8.208;2022-07-24T05:43:56;22.00;99.90
18456;DHT22;9357;49.900;8.208;2022-07-24T05:45:31;21.90;99.90
18456;DHT22;9357;49.900;8.208;2022-07-24T05:47:04;21.90;99.90
18456;DHT22;9357;49.900;8.208;2022-07-24T05:48:38;22.00;99.90
18456;DHT22;9357;49.900;8.208;2022-07-24T05:50:12;22.00;99.90
18456;DHT22;9357;49.900;8.208;2022-07-24T05:51:45;22.00;99.90
18456;DHT22;9357;49.900;8.208;2022-07-24T05:53:18;22.00;99.90
18456;DHT22;9357;49.900;8.208;2022-07-24T05:54:51;22.10;99.90
18456;DHT22;9357;49.900;8.208;2022-07-24T05:56:23;22.10;99.90
18456;DHT22;9357;49.900;8.208;2022-07-24T05:57:57;22.10;99.90
18456;DHT22;9357;49.900;8.208;2022-07-24T05:59:30;22.10;99.90
18456;DHT22;9357;49.900;8.208;2022-07-24T06:01:04;22.10;99.90
18456;DHT22;9357;49.900;8.208;2022-07-24T06:02:37;22.10;99.90
18456;DHT22;9357;49.900;8.208;2022-07-24T06:04:10;22.20;99.90
18456;DHT22;9357;49.900;8.208;2022-07-24T06:05:43;22.20;99.90
18456;DHT22;9357;49.900;8.208;2022-07-24T06:07:16;22.20;99.90
18456;DHT22;9357;49.900;8.208;2022-07-24T06:08:48;22.30;99.90
18456;DHT22;9357;49.900;8.208;2022-07-24T06:10:21;22.30;99.90
18456;DHT22;9357;49.900;8.208;2022-07-24T06:11:56;22.30;99.90
18456;DHT22;9357;49.900;8.208;2022-07-24T06:13:29;22.30;99.90
18456;DHT22;9357;49.900;8.208;2022-07-24T06:15:03;22.40;99.90
18456;DHT22;9357;49.900;8.208;2022-07-24T06:16:37;22.40;99.90
18456;DHT22;9357;49.900;8.208;2022-07-24T06:18:10;22.50;99.90
18456;DHT22;9357;49.900;8.208;2022-07-24T06:19:43;22.50;99.90
18456;DHT22;9357;49.900;8.208;2022-07-24T06:21:15;22.50;99.90
18456;DHT22;9357;49.900;8.208;2022-07-24T06:22:47;22.60;99.90
18456;DHT22;9357;49.900;8.208;2022-07-24T06:24:20;22.60;99.90
18456;DHT22;9357;49.900;8.208;2022-07-24T06:25:53;22.70;99.90
18456;DHT22;9357;49.900;8.208;2022-07-24T06:27:26;22.80;99.90
18456;DHT22;9357;49.900;8.208;2022-07-24T06:28:59;22.80;99.90
18456;DHT22;9357;49.900;8.208;2022-07-24T06:30:32;22.90;99.90
18456;DHT22;9357;49.900;8.208;2022-07-24T06:32:07;22.90;99.90
18456;DHT22;9357;49.900;8.208;2022-07-24T06:33:40;23.00;99.90
18456;DHT22;9357;49.900;8.208;2022-07-24T06:35:13;23.10;99.90
18456;DHT22;9357;49.900;8.208;2022-07-24T06:36:46;23.20;99.90
18456;DHT22;9357;49.900;8.208;2022-07-24T06:38:19;23.30;99.90
18456;DHT22;9357;49.900;8.208;2022-07-24T06:39:52;23.40;99.90
18456;DHT22;9357;49.900;8.208;2022-07-24T06:41:25;23.40;99.90
18456;DHT22;9357;49.900;8.208;2022-07-24T06:42:57;23.50;99.90
18456;DHT22;9357;49.900;8.208;2022-07-24T06:44:30;23.60;99.90
18456;DHT22;9357;49.900;8.208;2022-07-24T06:46:04;23.70;99.90
18456;DHT22;9357;49.900;8.208;2022-07-24T06:47:38;23.90;99.90
18456;DHT22;9357;49.900;8.208;2022-07-24T06:49:11;24.00;99.90
18456;DHT22;9357;49.900;8.208;2022-07-24T06:50:44;24.20;99.90
18456;DHT22;9357;49.900;8.208;2022-07-24T06:52:17;24.40;99.90
18456;DHT22;9357;49.900;8.208;2022-07-24T06:53:50;24.50;99.90
18456;DHT22;9357;49.900;8.208;2022-07-24T06:55:23;24.70;99.90
18456;DHT22;9357;49.900;8.208;2022-07-24T06:56:56;24.90;99.90
18456;DHT22;9357;49.900;8.208;2022-07-24T06:58:29;25.10;99.90
18456;DHT22;9357;49.900;8.208;2022-07-24T07:00:02;25.30;99.90
18456;DHT22;9357;49.900;8.208;2022-07-24T07:01:35;25.60;99.90
18456;DHT22;9357;49.900;8.208;2022-07-24T07:03:09;25.80;99.90
18456;DHT22;9357;49.900;8.208;2022-07-24T07:04:42;26.00;99.90
18456;DHT22;9357;49.900;8.208;2022-07-24T07:06:15;26.30;99.90
18456;DHT22;9357;49.900;8.208;2022-07-24T07:07:48;26.50;99.90
18456;DHT22;9357;49.900;8.208;2022-07-24T07:09:20;26.70;99.90
18456;DHT22;9357;49.900;8.208;2022-07-24T07:10:53;26.90;99.90
18456;DHT22;9357;49.900;8.208;2022-07-24T07:12:26;27.10;99.90
18456;DHT22;9357;49.900;8.208;2022-07-24T07:13:59;27.30;99.90
18456;DHT22;9357;49.900;8.208;2022-07-24T07:15:32;27.40;99.90
18456;DHT22;9357;49.900;8.208;2022-07-24T07:17:05;27.50;99.90
18456;DHT22;9357;49.900;8.208;2022-07-24T07:18:39;27.60;99.90
18456;DHT22;9357;49.900;8.208;2022-07-24T07:20:13;27.70;99.90
18456;DHT22;9357;49.900;8.208;2022-07-24T07:21:46;27.90;99.90
18456;DHT22;9357;49.900;8.208;2022-07-24T07:23:21;28.10;99.90
18456;DHT22;9357;49.900;8.208;2022-07-24T07:24:53;28.30;99.90
18456;DHT22;9357;49.900;8.208;2022-07-24T07:26:26;28.50;99.90
18456;DHT22;9357;49.900;8.208;2022-07-24T07:27:59;28.70;99.90
18456;DHT22;9357;49.900;8.208;2022-07-24T07:29:32;28.70;99.90
18456;DHT22;9357;49.900;8.208;2022-07-24T07:31:04;28.90;99.90
18456;DHT22;9357;49.900;8.208;2022-07-24T07:32:38;29.00;99.90
18456;DHT22;9357;49.900;8.208;2022-07-24T07:34:12;29.10;99.90
18456;DHT22;9357;49.900;8.208;2022-07-24T07:35:45;29.30;99.90
18456;DHT22;9357;49.900;8.208;2022-07-24T07:37:18;29.40;99.90
18456;DHT22;9357;49.900;8.208;2022-07-24T07:38:51;29.50;99.90
18456;DHT22;9357;49.900;8.208;2022-07-24T07:40:24;29.60;99.90
18456;DHT22;9357;49.900;8.208;2022-07-24T07:41:57;29.70;99.90
18456;DHT22;9357;49.900;8.208;2022-07-24T07:43:30;29.90;99.90
18456;DHT22;9357;49.900;8.208;2022-07-24T07:45:03;30.00;99.90
18456;DHT22;9357;49.900;8.208;2022-07-24T07:46:36;30.10;99.90
18456;DHT22;9357;49.900;8.208;2022-07-24T07:48:11;30.10;99.90
18456;DHT22;9357;49.900;8.208;2022-07-24T07:49:45;30.00;99.90
18456;DHT22;9357;49.900;8.208;2022-07-24T07:51:18;30.00;99.90
18456;DHT22;9357;49.900;8.208;2022-07-24T07:52:55;30.00;99.90
18456;DHT22;9357;49.900;8.208;2022-07-24T07:54:28;30.10;99.90
18456;DHT22;9357;49.900;8.208;2022-07-24T07:56:00;30.30;99.90
18456;DHT22;9357;49.900;8.208;2022-07-24T07:57:35;30.30;99.90
18456;DHT22;9357;49.900;8.208;2022-07-24T07:59:29;30.50;99.90
18456;DHT22;9357;49.900;8.208;2022-07-24T08:01:02;30.60;99.90
18456;DHT22;9357;49.900;8.208;2022-07-24T08:02:35;30.70;99.90
18456;DHT22;9357;49.900;8.208;2022-07-24T08:04:08;30.90;99.90
18456;DHT22;9357;49.900;8.208;2022-07-24T08:05:42;31.10;99.50
18456;DHT22;9357;49.900;8.208;2022-07-24T08:07:15;31.10;98.20
18456;DHT22;9357;49.900;8.208;2022-07-24T08:08:48;31.00;98.30
18456;DHT22;9357;49.900;8.208;2022-07-24T08:10:21;30.90;98.70
18456;DHT22;9357;49.900;8.208;2022-07-24T08:11:54;30.90;99.40
18456;DHT22;9357;49.900;8.208;2022-07-24T08:13:27;31.00;99.90
18456;DHT22;9357;49.900;8.208;2022-07-24T08:15:00;31.20;99.00
18456;DHT22;9357;49.900;8.208;2022-07-24T08:16:33;31.30;98.70
18456;DHT22;9357;49.900;8.208;2022-07-24T08:18:05;31.30;98.00
18456;DHT22;9357;49.900;8.208;2022-07-24T08:19:38;31.30;97.60
18456;DHT22;9357;49.900;8.208;2022-07-24T08:21:12;31.20;98.60
18456;DHT22;9357;49.900;8.208;2022-07-24T08:22:46;31.30;99.30
18456;DHT22;9357;49.900;8.208;2022-07-24T08:24:19;31.50;99.90
18456;DHT22;9357;49.900;8.208;2022-07-24T08:25:53;31.70;99.90
18456;DHT22;9357;49.900;8.208;2022-07-24T08:27:25;32.00;98.90
18456;DHT22;9357;49.900;8.208;2022-07-24T08:28:58;32.20;98.50
18456;DHT22;9357;49.900;8.208;2022-07-24T08:30:32;32.30;99.10
18456;DHT22;9357;49.900;8.208;2022-07-24T08:32:05;32.50;99.20
18456;DHT22;9357;49.900;8.208;2022-07-24T08:33:37;32.80;99.50
18456;DHT22;9357;49.900;8.208;2022-07-24T08:35:11;33.00;98.50
18456;DHT22;9357;49.900;8.208;2022-07-24T08:36:45;33.10;98.00
18456;DHT22;9357;49.900;8.208;2022-07-24T08:38:20;33.30;98.80
18456;DHT22;9357;49.900;8.208;2022-07-24T08:39:53;33.40;98.20
18456;DHT22;9357;49.900;8.208;2022-07-24T08:41:30;33.60;97.80
18456;DHT22;9357;49.900;8.208;2022-07-24T08:43:05;33.70;97.20
18456;DHT22;9357;49.900;8.208;2022-07-24T08:44:38;33.80;97.50
18456;DHT22;9357;49.900;8.208;2022-07-24T08:46:12;33.80;96.70
18456;DHT22;9357;49.900;8.208;2022-07-24T08:47:49;33.90;95.60
18456;DHT22;9357;49.900;8.208;2022-07-24T08:49:23;33.80;94.60
18456;DHT22;9357;49.900;8.208;2022-07-24T08:50:58;33.60;94.80
18456;DHT22;9357;49.900;8.208;2022-07-24T08:52:34;33.50;94.90
18456;DHT22;9357;49.900;8.208;2022-07-24T08:54:15;33.50;94.30
18456;DHT22;9357;49.900;8.208;2022-07-24T08:55:49;33.30;94.00
18456;DHT22;9357;49.900;8.208;2022-07-24T08:57:22;33.30;96.10
18456;DHT22;9357;49.900;8.208;2022-07-24T08:58:55;33.30;95.20
18456;DHT22;9357;49.900;8.208;2022-07-24T09:00:30;33.40;94.80
18456;DHT22;9357;49.900;8.208;2022-07-24T09:02:03;33.40;95.00
18456;DHT22;9357;49.900;8.208;2022-07-24T09:03:40;33.50;95.70
18456;DHT22;9357;49.900;8.208;2022-07-24T09:05:14;33.70;94.30
18456;DHT22;9357;49.900;8.208;2022-07-24T09:06:56;33.70;93.10
18456;DHT22;9357;49.900;8.208;2022-07-24T09:08:30;33.60;94.70
18456;DHT22;9357;49.900;8.208;2022-07-24T09:10:04;33.60;95.20
18456;DHT22;9357;49.900;8.208;2022-07-24T09:11:38;33.80;95.70
18456;DHT22;9357;49.900;8.208;2022-07-24T09:13:15;34.00;95.50
18456;DHT22;9357;49.900;8.208;2022-07-24T09:14:48;34.20;94.40
18456;DHT22;9357;49.900;8.208;2022-07-24T09:16:21;34.30;94.30
18456;DHT22;9357;49.900;8.208;2022-07-24T09:17:58;34.40;94.70
18456;DHT22;9357;49.900;8.208;2022-07-24T09:19:31;34.60;93.30
18456;DHT22;9357;49.900;8.208;2022-07-24T09:21:17;34.60;93.50
18456;DHT22;9357;49.900;8.208;2022-07-24T09:22:51;34.60;94.20
18456;DHT22;9357;49.900;8.208;2022-07-24T09:24:25;34.70;93.50
18456;DHT22;9357;49.900;8.208;2022-07-24T09:25:58;34.80;94.00
18456;DHT22;9357;49.900;8.208;2022-07-24T09:27:31;34.90;92.60
18456;DHT22;9357;49.900;8.208;2022-07-24T09:29:03;34.90;93.50
18456;DHT22;9357;49.900;8.208;2022-07-24T09:30:41;35.10;93.70
18456;DHT22;9357;49.900;8.208;2022-07-24T09:32:22;35.20;93.30
18456;DHT22;9357;49.900;8.208;2022-07-24T09:33:58;35.20;92.20
18456;DHT22;9357;49.900;8.208;2022-07-24T09:35:35;35.00;91.00
18456;DHT22;9357;49.900;8.208;2022-07-24T09:37:09;34.90;92.70
18456;DHT22;9357;49.900;8.208;2022-07-24T09:38:50;34.80;92.50
18456;DHT22;9357;49.900;8.208;2022-07-24T09:40:30;34.80;91.50
18456;DHT22;9357;49.900;8.208;2022-07-24T09:42:05;34.90;91.80
18456;DHT22;9357;49.900;8.208;2022-07-24T09:43:39;34.90;92.00
18456;DHT22;9357;49.900;8.208;2022-07-24T09:45:12;34.80;91.30
18456;DHT22;9357;49.900;8.208;2022-07-24T09:46:47;34.80;92.90
18456;DHT22;9357;49.900;8.208;2022-07-24T09:48:22;34.90;91.50
18456;DHT22;9357;49.900;8.208;2022-07-24T09:50:11;34.80;90.80
18456;DHT22;9357;49.900;8.208;2022-07-24T09:51:44;34.50;91.40
18456;DHT22;9357;49.900;8.208;2022-07-24T09:53:18;34.30;91.30
18456;DHT22;9357;49.900;8.208;2022-07-24T09:54:52;34.30;91.70
18456;DHT22;9357;49.900;8.208;2022-07-24T09:56:26;34.40;91.80
18456;DHT22;9357;49.900;8.208;2022-07-24T09:58:00;34.50;91.10
18456;DHT22;9357;49.900;8.208;2022-07-24T09:59:34;34.50;92.00